createdAt,value
2022-09-06T00:01:12.729Z,100741.03
2022-09-06T00:04:15.732Z,100743.78
2022-09-06T00:07:18.283Z,100739.34
2022-09-06T00:10:21.119Z,100735.06
2022-09-06T00:13:23.685Z,100729.63
2022-09-06T00:16:30.329Z,100735.81
2022-09-06T00:19:33.032Z,100726.72
2022-09-06T00:22:36.507Z,100730.44
2022-09-06T00:25:38.948Z,100723.00
2022-09-06T00:28:42.113Z,100726.97
2022-09-06T00:31:44.600Z,100717.97
2022-09-06T00:34:47.314Z,100717.03
2022-09-06T00:37:49.720Z,100717.88
2022-09-06T00:40:52.470Z,100723.41
2022-09-06T00:43:55.211Z,100725.22
2022-09-06T00:46:57.867Z,100723.50
2022-09-06T00:50:00.675Z,100736.94
2022-09-06T00:53:03.385Z,100731.87
2022-09-06T00:56:06.098Z,100728.94
2022-09-06T00:59:08.848Z,100730.81
2022-09-06T01:02:11.837Z,100726.31
2022-09-06T01:05:15.544Z,100729.22
2022-09-06T01:08:23.997Z,100723.91
2022-09-06T01:11:49.147Z,100723.97
2022-09-06T01:15:15.806Z,100720.53
2022-09-06T01:18:36.755Z,100725.44
2022-09-06T01:21:51.191Z,100727.31
2022-09-06T01:25:00.130Z,100722.94
2022-09-06T01:28:21.330Z,100726.50
2022-09-06T01:31:31.807Z,100729.09
2022-09-06T01:34:45.691Z,100732.41
2022-09-06T01:37:48.539Z,100727.66
2022-09-06T01:40:51.000Z,100731.03
2022-09-06T01:43:54.148Z,100731.75
2022-09-06T01:47:06.806Z,100731.59
2022-09-06T01:50:35.871Z,100734.94
2022-09-06T01:53:46.554Z,100727.50
2022-09-06T01:57:11.568Z,100724.84
2022-09-06T02:00:18.750Z,100719.25
2022-09-06T02:03:26.254Z,100718.37
2022-09-06T02:06:32.149Z,100720.19
2022-09-06T02:09:41.063Z,100723.91
2022-09-06T02:12:45.798Z,100722.06
2022-09-06T02:16:04.207Z,100731.03
2022-09-06T02:19:11.974Z,100739.38
2022-09-06T02:22:17.321Z,100740.56
2022-09-06T02:25:26.411Z,100731.66
2022-09-06T02:28:29.235Z,100726.53
2022-09-06T02:31:32.196Z,100724.91
2022-09-06T02:34:37.917Z,100713.38
2022-09-06T02:37:41.499Z,100705.63
2022-09-06T02:40:44.843Z,100706.69
2022-09-06T02:43:47.319Z,100705.94
2022-09-06T02:46:53.721Z,100712.22
2022-09-06T02:49:58.997Z,100708.81
2022-09-06T02:53:12.482Z,100701.63
2022-09-06T02:56:14.968Z,100708.03
2022-09-06T02:59:17.903Z,100708.06
2022-09-06T03:02:20.465Z,100700.09
2022-09-06T03:05:24.392Z,100699.34
2022-09-06T03:08:29.275Z,100690.38
2022-09-06T03:11:31.932Z,100687.91
2022-09-06T03:14:36.053Z,100690.47
2022-09-06T03:17:39.439Z,100699.59
2022-09-06T03:20:41.913Z,100685.25
2022-09-06T03:23:45.861Z,100689.75
2022-09-06T03:26:48.301Z,100689.78
2022-09-06T03:29:51.034Z,100679.91
2022-09-06T03:32:54.075Z,100679.91
2022-09-06T03:35:59.346Z,100683.66
2022-09-06T03:39:01.879Z,100684.66
2022-09-06T03:42:04.622Z,100678.44
2022-09-06T03:45:07.662Z,100678.50
2022-09-06T03:48:10.393Z,100678.50
2022-09-06T03:51:12.783Z,100680.47
2022-09-06T03:54:15.452Z,100687.75
2022-09-06T03:57:17.894Z,100677.94
2022-09-06T04:00:20.680Z,100687.91
2022-09-06T04:03:23.414Z,100687.06
2022-09-06T04:06:25.792Z,100694.25
2022-09-06T04:09:28.498Z,100687.91
2022-09-06T04:12:30.969Z,100684.44
2022-09-06T04:15:33.632Z,100676.25
2022-09-06T04:18:36.518Z,100671.72
2022-09-06T04:21:39.270Z,100678.06
2022-09-06T04:24:41.654Z,100653.22
2022-09-06T04:27:44.316Z,100670.91
2022-09-06T04:31:01.963Z,100676.41
2022-09-06T04:34:06.869Z,100678.25
2022-09-06T04:37:09.291Z,100689.00
2022-09-06T04:40:12.179Z,100684.63
2022-09-06T04:43:14.887Z,100675.47
2022-09-06T04:46:26.154Z,100680.75
2022-09-06T04:49:28.773Z,100678.00
2022-09-06T04:52:31.470Z,100687.84
2022-09-06T04:55:34.730Z,100682.38
2022-09-06T04:58:37.429Z,100678.69
2022-09-06T05:01:39.849Z,100686.75
2022-09-06T05:04:42.543Z,100687.41
2022-09-06T05:07:44.942Z,100705.28
2022-09-06T05:10:51.841Z,100693.38
2022-09-06T05:13:54.792Z,100684.09
2022-09-06T05:16:58.153Z,100684.69
2022-09-06T05:20:00.651Z,100696.19
2022-09-06T05:23:03.366Z,100700.63
2022-09-06T05:26:06.305Z,100701.16
2022-09-06T05:29:09.061Z,100704.53
2022-09-06T05:32:11.452Z,100699.94
2022-09-06T05:35:14.240Z,100705.25
2022-09-06T05:38:16.736Z,100702.25
2022-09-06T05:41:19.689Z,100702.25
2022-09-06T05:44:22.111Z,100690.31
2022-09-06T05:47:24.880Z,100694.28
2022-09-06T05:50:29.350Z,100694.94
2022-09-06T05:53:45.434Z,100696.38
2022-09-06T05:56:48.193Z,100698.69
2022-09-06T05:59:50.811Z,100694.63
2022-09-06T06:02:53.581Z,100696.94
2022-09-06T06:05:56.345Z,100705.44
2022-09-06T06:08:59.662Z,100693.34
2022-09-06T06:12:02.548Z,100698.66
2022-09-06T06:15:08.415Z,100692.94
2022-09-06T06:18:11.181Z,100696.97
2022-09-06T06:21:16.016Z,100701.06
2022-09-06T06:24:18.888Z,100699.72
2022-09-06T06:27:21.374Z,100707.87
2022-09-06T06:30:24.122Z,100699.22
2022-09-06T06:33:26.585Z,100704.56
2022-09-06T06:36:31.630Z,100702.06
2022-09-06T06:39:34.145Z,100714.13
2022-09-06T06:42:36.913Z,100711.56
2022-09-06T06:45:39.425Z,100714.63
2022-09-06T06:48:44.004Z,100719.56
2022-09-06T06:51:47.096Z,100714.94
2022-09-06T06:54:50.185Z,100710.03
2022-09-06T06:57:52.708Z,100707.41
2022-09-06T07:00:55.728Z,100718.63
2022-09-06T07:03:58.707Z,100716.44
2022-09-06T07:13:35.251Z,100712.03
2022-09-06T07:16:40.565Z,100711.41
2022-09-06T07:26:31.810Z,100732.56
2022-09-06T07:29:34.974Z,100725.47
2022-09-06T07:32:37.846Z,100719.53
2022-09-06T07:35:40.320Z,100720.91
2022-09-06T07:38:43.412Z,100718.22
2022-09-06T07:41:46.047Z,100700.69
2022-09-06T07:44:48.829Z,100705.59
2022-09-06T07:47:59.744Z,100713.31
2022-09-06T07:51:11.458Z,100716.31
2022-09-06T07:54:30.030Z,100715.50
2022-09-06T07:57:33.655Z,100702.94
2022-09-06T08:00:36.340Z,100704.41
2022-09-06T08:03:39.142Z,100709.94
2022-09-06T08:10:10.935Z,100692.94
2022-09-06T08:13:13.390Z,100694.50
2022-09-06T08:16:17.166Z,100701.84
2022-09-06T08:19:19.865Z,100701.53
2022-09-06T08:22:22.604Z,100688.84
2022-09-06T08:25:26.002Z,100681.59
2022-09-06T08:28:29.062Z,100684.06
2022-09-06T08:31:32.443Z,100686.06
2022-09-06T08:34:35.198Z,100683.47
2022-09-06T08:37:37.759Z,100691.50
2022-09-06T08:40:40.653Z,100683.84
2022-09-06T08:47:18.608Z,100685.44
2022-09-06T08:50:21.997Z,100683.44
2022-09-06T08:53:25.106Z,100658.75
2022-09-06T08:56:35.239Z,100678.22
2022-09-06T08:59:43.901Z,100671.66
2022-09-06T09:02:53.333Z,100672.56
2022-09-06T09:05:56.325Z,100670.16
2022-09-06T09:09:08.474Z,100672.47
2022-09-06T09:12:12.358Z,100669.09
2022-09-06T09:15:18.018Z,100664.50
2022-09-06T09:18:28.039Z,100656.72
2022-09-06T09:21:37.260Z,100658.88
2022-09-06T09:24:40.180Z,100645.28
2022-09-06T09:27:43.041Z,100639.00
2022-09-06T09:30:50.478Z,100630.16
2022-09-06T09:33:53.873Z,100628.34
2022-09-06T09:40:50.677Z,100634.03
2022-09-06T09:44:04.717Z,100618.31
2022-09-06T09:47:32.486Z,100623.37
2022-09-06T09:50:35.648Z,100615.72
2022-09-06T09:53:50.073Z,100603.72
2022-09-06T09:56:53.159Z,100595.75
2022-09-06T09:59:58.359Z,100586.28
2022-09-06T10:03:01.644Z,100589.56
2022-09-06T10:06:05.024Z,100582.87
2022-09-06T10:09:35.138Z,100577.62
2022-09-06T10:12:40.493Z,100572.91
2022-09-06T10:15:43.758Z,100583.53
2022-09-06T10:18:46.619Z,100574.44
2022-09-06T10:21:51.901Z,100567.69
2022-09-06T10:25:26.542Z,100553.47
2022-09-06T10:28:41.812Z,100557.34
2022-09-06T10:32:12.053Z,100550.66
2022-09-06T10:35:21.110Z,100551.78
2022-09-06T10:38:54.522Z,100544.38
2022-09-06T10:42:11.599Z,100538.56
2022-09-06T10:45:45.200Z,100554.09
2022-09-06T10:48:48.519Z,100546.72
2022-09-06T10:51:58.324Z,100550.59
2022-09-06T10:55:04.616Z,100549.28
2022-09-06T10:58:18.501Z,100546.94
2022-09-06T11:01:31.474Z,100529.00
2022-09-06T11:11:49.090Z,100540.56
2022-09-06T11:14:52.090Z,100532.31
2022-09-06T11:17:58.371Z,100522.34
2022-09-06T11:21:19.646Z,100525.94
2022-09-06T11:24:40.587Z,100520.19
2022-09-06T11:27:47.176Z,100510.09
2022-09-06T11:30:51.087Z,100516.75
2022-09-06T11:34:11.458Z,100513.84
2022-09-06T11:37:25.980Z,100510.06
2022-09-06T11:40:41.549Z,100506.16
2022-09-06T11:43:52.132Z,100506.78
2022-09-06T11:46:54.576Z,100501.66
2022-09-06T11:49:57.413Z,100494.78
2022-09-06T11:53:17.440Z,100489.78
2022-09-06T11:56:30.812Z,100482.19
2022-09-06T11:59:41.889Z,100477.63
2022-09-06T12:02:46.192Z,100486.91
2022-09-06T12:06:18.268Z,100480.44
2022-09-06T12:09:34.371Z,100486.59
2022-09-06T12:12:46.737Z,100485.84
2022-09-06T12:15:54.557Z,100472.56
2022-09-06T12:18:58.149Z,100479.62
2022-09-06T12:22:00.679Z,100489.69
2022-09-06T12:25:42.564Z,100480.91
2022-09-06T12:28:54.265Z,100471.16
2022-09-06T12:31:57.883Z,100470.84
2022-09-06T12:38:25.322Z,100463.66
2022-09-06T12:41:31.041Z,100463.66
2022-09-06T12:44:49.076Z,100463.66
2022-09-06T12:48:04.461Z,100457.84
2022-09-06T12:51:13.603Z,100454.06
2022-09-06T12:54:24.785Z,100452.69
2022-09-06T12:57:27.586Z,100445.12
2022-09-06T13:00:37.672Z,100450.69
2022-09-06T13:04:05.094Z,100447.78
2022-09-06T13:07:11.561Z,100449.41
2022-09-06T13:10:15.940Z,100456.66
2022-09-06T13:13:20.056Z,100445.53
2022-09-06T13:16:25.699Z,100465.13
2022-09-06T13:19:33.462Z,100453.81
2022-09-06T13:22:46.535Z,100446.87
2022-09-06T13:25:50.959Z,100443.16
2022-09-06T13:28:53.794Z,100442.97
2022-09-06T13:31:58.219Z,100440.75
2022-09-06T13:35:01.479Z,100438.66
2022-09-06T13:38:30.788Z,100456.97
2022-09-06T13:41:37.826Z,100457.19
2022-09-06T13:44:40.408Z,100458.09
2022-09-06T13:47:43.201Z,100458.00
2022-09-06T13:50:45.839Z,100460.31
2022-09-06T13:53:49.104Z,100454.47
2022-09-06T13:56:51.580Z,100462.16
2022-09-06T13:59:55.037Z,100461.44
2022-09-06T14:02:58.190Z,100460.72
2022-09-06T14:06:01.329Z,100462.31
2022-09-06T14:09:08.219Z,100463.56
2022-09-06T14:12:11.485Z,100449.66
2022-09-06T14:15:14.036Z,100454.03
2022-09-06T14:18:17.412Z,100464.56
2022-09-06T14:21:20.353Z,100461.53
2022-09-06T14:24:23.274Z,100451.75
2022-09-06T14:27:25.802Z,100460.37
2022-09-06T14:30:28.607Z,100452.53
2022-09-06T14:33:31.397Z,100438.56
2022-09-06T14:36:34.678Z,100434.44
2022-09-06T14:39:37.259Z,100450.97
2022-09-06T14:42:40.063Z,100446.53
2022-09-06T14:45:42.656Z,100453.03
2022-09-06T14:48:45.969Z,100455.38
2022-09-06T14:51:48.582Z,100447.03
2022-09-06T14:54:51.409Z,100444.09
2022-09-06T14:57:54.513Z,100458.63
2022-09-06T15:01:06.426Z,100453.63
2022-09-06T15:04:10.749Z,100443.31
2022-09-06T15:07:13.508Z,100434.38
2022-09-06T15:10:17.188Z,100435.06
2022-09-06T15:13:20.071Z,100435.66
2022-09-06T15:16:22.710Z,100440.16
2022-09-06T15:19:26.996Z,100434.25
2022-09-06T15:22:29.971Z,100439.16
2022-09-06T15:25:32.800Z,100446.34
2022-09-06T15:28:36.231Z,100448.78
2022-09-06T15:31:40.123Z,100443.59
2022-09-06T15:34:42.942Z,100445.84
2022-09-06T15:37:47.472Z,100450.06
2022-09-06T15:40:50.761Z,100448.78
2022-09-06T15:43:57.622Z,100450.84
2022-09-06T15:47:00.259Z,100446.03
2022-09-06T15:50:03.183Z,100448.38
2022-09-06T15:53:05.914Z,100449.66
2022-09-06T15:56:10.423Z,100449.88
2022-09-06T15:59:13.295Z,100445.81
2022-09-06T16:02:16.286Z,100446.19
2022-09-06T16:05:19.450Z,100447.44
2022-09-06T16:08:21.994Z,100446.16
2022-09-06T16:11:24.835Z,100447.50
2022-09-06T16:14:28.588Z,100440.63
2022-09-06T16:17:31.628Z,100436.38
2022-09-06T16:20:37.631Z,100431.56
2022-09-06T16:23:41.940Z,100432.63
2022-09-06T16:26:46.326Z,100434.69
2022-09-06T16:29:49.427Z,100437.19
2022-09-06T16:32:53.070Z,100439.44
2022-09-06T16:35:55.940Z,100432.56
2022-09-06T16:38:58.459Z,100439.28
2022-09-06T16:42:01.553Z,100419.34
2022-09-06T16:45:04.970Z,100433.56
2022-09-06T16:48:08.218Z,100433.84
2022-09-06T16:51:13.548Z,100431.81
2022-09-06T16:54:17.271Z,100424.72
2022-09-06T16:57:19.947Z,100437.91
2022-09-06T17:00:22.730Z,100425.50
2022-09-06T17:03:25.365Z,100428.44
2022-09-06T17:06:29.312Z,100420.03
2022-09-06T17:09:34.512Z,100423.44
2022-09-06T17:12:37.450Z,100431.09
2022-09-06T17:15:58.670Z,100425.25
2022-09-06T17:19:02.391Z,100428.31
2022-09-06T17:22:05.336Z,100423.34
2022-09-06T17:25:08.238Z,100428.53
2022-09-06T17:28:10.800Z,100439.75
2022-09-06T17:31:13.935Z,100436.78
2022-09-06T17:34:18.047Z,100438.94
2022-09-06T17:37:20.822Z,100438.47
2022-09-06T17:40:23.550Z,100436.09
2022-09-06T17:43:27.171Z,100443.03
2022-09-06T17:46:30.046Z,100443.34
2022-09-06T17:49:33.038Z,100453.63
2022-09-06T17:52:37.184Z,100460.53
2022-09-06T17:55:41.023Z,100461.78
2022-09-06T17:58:44.236Z,100463.94
2022-09-06T18:01:47.197Z,100463.38
2022-09-06T18:04:50.097Z,100471.72
2022-09-06T18:07:52.628Z,100469.38
2022-09-06T18:10:55.535Z,100468.66
2022-09-06T18:14:06.169Z,100465.19
2022-09-06T18:17:09.213Z,100465.41
2022-09-06T18:20:11.827Z,100466.63
2022-09-06T18:23:14.593Z,100474.00
2022-09-06T18:26:17.374Z,100468.84
2022-09-06T18:29:20.862Z,100477.19
2022-09-06T18:32:23.457Z,100479.09
2022-09-06T18:35:26.275Z,100477.63
2022-09-06T18:38:28.904Z,100479.38
2022-09-06T18:41:51.783Z,100479.03
2022-09-06T18:44:55.980Z,100464.56
2022-09-06T18:47:59.594Z,100480.06
2022-09-06T18:51:05.976Z,100481.03
2022-09-06T18:54:10.961Z,100481.31
2022-09-06T18:57:15.479Z,100479.06
2022-09-06T19:00:19.134Z,100487.59
2022-09-06T19:03:21.650Z,100485.00
2022-09-06T19:06:24.712Z,100485.16
2022-09-06T19:09:27.229Z,100490.75
2022-09-06T19:12:30.086Z,100479.22
2022-09-06T19:15:32.628Z,100472.50
2022-09-06T19:18:35.980Z,100476.25
2022-09-06T19:21:41.959Z,100466.66
2022-09-06T19:24:45.441Z,100458.75
2022-09-06T19:27:48.919Z,100468.97
2022-09-06T19:30:51.978Z,100465.41
2022-09-06T19:33:55.674Z,100464.72
2022-09-06T19:36:58.583Z,100460.50
2022-09-06T19:40:01.166Z,100472.56
2022-09-06T19:43:04.144Z,100463.66
2022-09-06T19:46:08.897Z,100472.78
2022-09-06T19:49:12.588Z,100461.13
2022-09-06T19:52:15.150Z,100472.91
2022-09-06T19:55:17.928Z,100467.84
2022-09-06T19:58:20.471Z,100474.44
2022-09-06T20:01:25.231Z,100462.84
2022-09-06T20:04:29.210Z,100472.91
2022-09-06T20:07:31.696Z,100466.91
2022-09-06T20:10:34.918Z,100474.13
2022-09-06T20:13:38.645Z,100464.53
2022-09-06T20:16:42.613Z,100465.56
2022-09-06T20:19:45.276Z,100467.50
2022-09-06T20:22:48.619Z,100466.75
2022-09-06T20:26:06.062Z,100468.59
2022-09-06T20:29:09.236Z,100473.16
2022-09-06T20:32:11.753Z,100472.75
2022-09-06T20:35:14.659Z,100462.62
2022-09-06T20:38:17.291Z,100470.22
2022-09-06T20:41:22.893Z,100472.22
2022-09-06T20:44:25.379Z,100462.47
2022-09-06T20:47:29.055Z,100456.06
2022-09-06T20:50:31.593Z,100454.53
2022-09-06T20:53:37.280Z,100465.66
2022-09-06T20:56:41.289Z,100452.88
2022-09-06T20:59:44.063Z,100452.81
2022-09-06T21:02:46.651Z,100460.28
2022-09-06T21:05:49.732Z,100460.59
2022-09-06T21:08:52.483Z,100454.66
2022-09-06T21:11:55.572Z,100445.75
2022-09-06T21:14:58.048Z,100449.47
2022-09-06T21:18:01.507Z,100445.91
2022-09-06T21:21:06.029Z,100449.53
2022-09-06T21:24:09.752Z,100451.59
2022-09-06T21:27:12.322Z,100449.03
2022-09-06T21:30:15.223Z,100448.88
2022-09-06T21:33:17.777Z,100441.97
2022-09-06T21:36:22.195Z,100448.47
2022-09-06T21:39:24.747Z,100446.75
2022-09-06T21:42:30.589Z,100447.88
2022-09-06T21:45:37.533Z,100438.16
2022-09-06T21:48:42.052Z,100435.62
2022-09-06T21:51:44.597Z,100442.22
2022-09-06T21:54:47.481Z,100449.53
2022-09-06T21:57:50.304Z,100445.16
2022-09-06T22:00:53.568Z,100448.75
2022-09-06T22:03:56.615Z,100451.75
2022-09-06T22:06:59.144Z,100454.63
2022-09-06T22:10:02.336Z,100443.75
2022-09-06T22:13:09.676Z,100441.88
2022-09-06T22:16:14.164Z,100442.91
2022-09-06T22:19:16.676Z,100448.41
2022-09-06T22:22:19.445Z,100446.75
2022-09-06T22:25:22.057Z,100438.62
2022-09-06T22:28:24.999Z,100445.06
2022-09-06T22:31:29.446Z,100457.94
2022-09-06T22:34:32.316Z,100439.94
2022-09-06T22:37:35.109Z,100442.75
2022-09-06T22:40:37.938Z,100450.97
2022-09-06T22:43:40.429Z,100442.81
2022-09-06T22:46:43.446Z,100452.84
2022-09-06T22:49:46.041Z,100457.37
2022-09-06T22:52:48.844Z,100449.44
2022-09-06T22:55:51.505Z,100446.09
2022-09-06T22:58:54.691Z,100450.63
2022-09-06T23:01:57.413Z,100448.03
2022-09-06T23:05:00.270Z,100447.19
2022-09-06T23:08:03.891Z,100449.94
2022-09-06T23:11:09.780Z,100446.53
2022-09-06T23:14:12.326Z,100445.59
2022-09-06T23:17:15.289Z,100443.00
2022-09-06T23:20:18.089Z,100449.41
2022-09-06T23:23:20.849Z,100436.81
2022-09-06T23:26:26.093Z,100443.78
2022-09-06T23:29:29.775Z,100440.91
2022-09-06T23:32:33.222Z,100430.09
2022-09-06T23:35:36.109Z,100432.22
2022-09-06T23:38:40.404Z,100430.97
2022-09-06T23:41:43.197Z,100429.16
2022-09-06T23:44:45.704Z,100422.94
2022-09-06T23:47:48.465Z,100413.94
2022-09-06T23:50:51.120Z,100407.72
2022-09-06T23:53:53.920Z,100413.94
2022-09-06T23:56:56.512Z,100413.37
2022-09-06T23:59:59.325Z,100411.69
